TAF Text Data
IDs:
Format:
Raw Decoded Include METAR

Data at: 1213 UTC 23 Jun 2021

KPQI 231120Z 2312/2412 30007KT P6SM SCT080
  FM231400 30009G16KT P6SM SCT040
  FM231700 29010G17KT P6SM SCT060
  FM232300 29005KT P6SM FEW120
  FM240200 VRB02KT P6SM SCT200